Jones, Oklahoma
Current Conditions -  °F | °C
As of 3:58 PM on Saturday 20 Dec 2014 (Local Time) from KTIK Reporting Station
Overcast Overcast  
Wind Chill: 38°   Ceiling: 1400
Heat Index: 43°   Visibility: 10mi
Dew Point: 37°   Wind: 8mph
Humidity: 80%   Direction: 190°S
Pressure: 30.15"   Gusts: NA
Location:  35.57°N, 97.29°W
Report Text: KTIK 202158Z AUTO 19007KT 10SM OVC014 06/03 A3015 RMK AO2 SLP223 T00590027
Loading
Personal Weather Stations






























Interactive Weather Map New forecast layout! Learn more

10-Day Weather Forecast

Advertisements
Track Severe Weather on mobile